sensor_id;sensor_type;location;lat;lon;timestamp;pressure;altitude;pressure_sealevel;temperature;humidity
8039;BME280;4062;49.844;8.120;2023-05-22T00:00:08;98963.16;;;15.63;59.12
8039;BME280;4062;49.844;8.120;2023-05-22T00:02:13;98956.97;;;15.62;58.96
8039;BME280;4062;49.844;8.120;2023-05-22T00:04:15;98961.38;;;15.63;58.99
8039;BME280;4062;49.844;8.120;2023-05-22T00:06:21;98956.97;;;15.62;59.15
8039;BME280;4062;49.844;8.120;2023-05-22T00:08:24;98962.31;;;15.62;59.09
8039;BME280;4062;49.844;8.120;2023-05-22T00:10:25;98954.22;;;15.64;58.98
8039;BME280;4062;49.844;8.120;2023-05-22T00:12:26;98955.16;;;15.63;59.03
8039;BME280;4062;49.844;8.120;2023-05-22T00:14:28;98952.50;;;15.63;59.08
8039;BME280;4062;49.844;8.120;2023-05-22T00:16:29;98958.72;;;15.63;59.01
8039;BME280;4062;49.844;8.120;2023-05-22T00:18:30;98948.91;;;15.64;59.12
8039;BME280;4062;49.844;8.120;2023-05-22T00:20:32;98946.31;;;15.62;59.15
8039;BME280;4062;49.844;8.120;2023-05-22T00:22:38;98952.50;;;15.63;59.08
8039;BME280;4062;49.844;8.120;2023-05-22T00:24:39;98948.06;;;15.63;58.92
8039;BME280;4062;49.844;8.120;2023-05-22T00:26:41;98948.06;;;15.63;59.05
8039;BME280;4062;49.844;8.120;2023-05-22T00:28:42;98949.84;;;15.63;59.00
8039;BME280;4062;49.844;8.120;2023-05-22T00:30:43;98947.19;;;15.63;59.00
8039;BME280;4062;49.844;8.120;2023-05-22T00:32:45;98941.84;;;15.63;58.95
8039;BME280;4062;49.844;8.120;2023-05-22T00:34:46;98948.06;;;15.63;59.08
8039;BME280;4062;49.844;8.120;2023-05-22T00:36:47;98939.19;;;15.63;58.94
8039;BME280;4062;49.844;8.120;2023-05-22T00:38:49;98944.50;;;15.63;59.01
8039;BME280;4062;49.844;8.120;2023-05-22T00:40:50;98942.72;;;15.63;58.99
8039;BME280;4062;49.844;8.120;2023-05-22T00:42:52;98936.53;;;15.63;58.99
8039;BME280;4062;49.844;8.120;2023-05-22T00:44:53;98941.84;;;15.63;59.03
8039;BME280;4062;49.844;8.120;2023-05-22T00:46:55;98942.72;;;15.63;58.94
8039;BME280;4062;49.844;8.120;2023-05-22T00:48:57;98936.53;;;15.63;59.13
8039;BME280;4062;49.844;8.120;2023-05-22T00:50:58;98940.06;;;15.63;59.16
8039;BME280;4062;49.844;8.120;2023-05-22T00:53:00;98947.19;;;15.63;59.00
8039;BME280;4062;49.844;8.120;2023-05-22T00:55:02;98943.66;;;15.62;59.01
8039;BME280;4062;49.844;8.120;2023-05-22T00:57:04;98944.50;;;15.63;59.07
8039;BME280;4062;49.844;8.120;2023-05-22T00:59:07;98945.38;;;15.63;58.98
8039;BME280;4062;49.844;8.120;2023-05-22T01:01:10;98945.38;;;15.63;59.13
8039;BME280;4062;49.844;8.120;2023-05-22T01:03:11;98937.41;;;15.63;59.07
8039;BME280;4062;49.844;8.120;2023-05-22T01:05:12;98941.84;;;15.63;59.07
8039;BME280;4062;49.844;8.120;2023-05-22T01:07:18;98948.06;;;15.63;58.98
8039;BME280;4062;49.844;8.120;2023-05-22T01:09:19;98939.19;;;15.63;59.09
8039;BME280;4062;49.844;8.120;2023-05-22T01:11:25;98940.06;;;15.63;58.93
8039;BME280;4062;49.844;8.120;2023-05-22T01:13:41;98942.72;;;15.63;58.94
8039;BME280;4062;49.844;8.120;2023-05-22T01:18:21;98938.34;;;15.62;58.93
8039;BME280;4062;49.844;8.120;2023-05-22T01:20:34;98941.84;;;15.63;58.94
8039;BME280;4062;49.844;8.120;2023-05-22T01:32:20;98939.19;;;15.63;59.01
8039;BME280;4062;49.844;8.120;2023-05-22T01:34:23;98937.41;;;15.63;59.13
8039;BME280;4062;49.844;8.120;2023-05-22T01:36:33;98941.00;;;15.62;59.14
8039;BME280;4062;49.844;8.120;2023-05-22T01:38:36;98951.56;;;15.64;58.94
8039;BME280;4062;49.844;8.120;2023-05-22T01:40:40;98947.19;;;15.63;59.21
8039;BME280;4062;49.844;8.120;2023-05-22T01:42:41;98949.84;;;15.63;59.00
8039;BME280;4062;49.844;8.120;2023-05-22T01:44:43;98942.72;;;15.63;59.13
8039;BME280;4062;49.844;8.120;2023-05-22T01:46:44;98944.50;;;15.63;58.97
8039;BME280;4062;49.844;8.120;2023-05-22T01:48:46;98943.56;;;15.64;59.06
8039;BME280;4062;49.844;8.120;2023-05-22T01:50:50;98947.19;;;15.63;58.96
8039;BME280;4062;49.844;8.120;2023-05-22T01:55:39;98939.19;;;15.63;58.99
8039;BME280;4062;49.844;8.120;2023-05-22T01:58:06;98934.75;;;15.63;59.00
8039;BME280;4062;49.844;8.120;2023-05-22T02:00:12;98948.06;;;15.63;59.14
8039;BME280;4062;49.844;8.120;2023-05-22T02:02:19;98944.41;;;15.64;59.01
8039;BME280;4062;49.844;8.120;2023-05-22T02:05:17;98945.38;;;15.63;58.98
8039;BME280;4062;49.844;8.120;2023-05-22T02:07:18;98942.72;;;15.63;59.02
8039;BME280;4062;49.844;8.120;2023-05-22T02:09:21;98942.72;;;15.63;58.99
8039;BME280;4062;49.844;8.120;2023-05-22T02:11:25;98944.50;;;15.63;59.17
8039;BME280;4062;49.844;8.120;2023-05-22T02:13:28;98941.84;;;15.63;59.14
8039;BME280;4062;49.844;8.120;2023-05-22T02:15:30;98939.19;;;15.63;58.97
8039;BME280;4062;49.844;8.120;2023-05-22T02:17:37;98941.84;;;15.63;59.09
8039;BME280;4062;49.844;8.120;2023-05-22T02:19:40;98941.84;;;15.63;59.14
8039;BME280;4062;49.844;8.120;2023-05-22T02:21:41;98943.66;;;15.62;59.11
8039;BME280;4062;49.844;8.120;2023-05-22T02:23:43;98944.50;;;15.63;59.14
8039;BME280;4062;49.844;8.120;2023-05-22T02:25:44;98941.00;;;15.62;59.14
8039;BME280;4062;49.844;8.120;2023-05-22T02:27:47;98947.19;;;15.63;59.10
8039;BME280;4062;49.844;8.120;2023-05-22T02:29:50;98932.91;;;15.64;58.99
8039;BME280;4062;49.844;8.120;2023-05-22T02:31:53;98941.84;;;15.63;59.15
8039;BME280;4062;49.844;8.120;2023-05-22T02:33:54;98940.06;;;15.63;59.07
8039;BME280;4062;49.844;8.120;2023-05-22T02:35:56;98937.41;;;15.63;59.13
8039;BME280;4062;49.844;8.120;2023-05-22T02:37:58;98945.38;;;15.63;59.14
8039;BME280;4062;49.844;8.120;2023-05-22T02:39:59;98948.06;;;15.63;59.09
8039;BME280;4062;49.844;8.120;2023-05-22T02:42:03;98943.66;;;15.62;59.01
8039;BME280;4062;49.844;8.120;2023-05-22T02:44:04;98947.19;;;15.63;59.09
8039;BME280;4062;49.844;8.120;2023-05-22T02:46:06;98944.50;;;15.63;59.07
8039;BME280;4062;49.844;8.120;2023-05-22T02:48:08;98940.06;;;15.63;59.05
8039;BME280;4062;49.844;8.120;2023-05-22T02:50:09;98933.84;;;15.63;59.09
8039;BME280;4062;49.844;8.120;2023-05-22T02:52:11;98936.53;;;15.63;59.15
8039;BME280;4062;49.844;8.120;2023-05-22T02:54:14;98939.19;;;15.63;59.00
8039;BME280;4062;49.844;8.120;2023-05-22T02:56:16;98932.91;;;15.64;59.14
8039;BME280;4062;49.844;8.120;2023-05-22T02:58:18;98937.41;;;15.63;58.96
8039;BME280;4062;49.844;8.120;2023-05-22T03:00:23;98932.06;;;15.63;58.99
8039;BME280;4062;49.844;8.120;2023-05-22T03:02:26;98933.00;;;15.62;58.96
8039;BME280;4062;49.844;8.120;2023-05-22T03:04:28;98933.00;;;15.62;59.06
8039;BME280;4062;49.844;8.120;2023-05-22T03:06:32;98928.53;;;15.63;59.19
8039;BME280;4062;49.844;8.120;2023-05-22T03:08:35;98940.06;;;15.63;59.12
8039;BME280;4062;49.844;8.120;2023-05-22T03:10:38;98940.06;;;15.63;59.07
8039;BME280;4062;49.844;8.120;2023-05-22T03:12:39;98939.19;;;15.63;58.94
8039;BME280;4062;49.844;8.120;2023-05-22T03:14:41;98937.41;;;15.63;59.11
8039;BME280;4062;49.844;8.120;2023-05-22T03:16:42;98941.84;;;15.63;59.07
8039;BME280;4062;49.844;8.120;2023-05-22T03:18:43;98940.06;;;15.63;58.96
8039;BME280;4062;49.844;8.120;2023-05-22T03:20:46;98934.75;;;15.63;59.03
8039;BME280;4062;49.844;8.120;2023-05-22T03:22:47;98935.69;;;15.62;59.13
8039;BME280;4062;49.844;8.120;2023-05-22T03:24:49;98934.75;;;15.63;59.01
8039;BME280;4062;49.844;8.120;2023-05-22T03:26:51;98937.41;;;15.63;58.94
8039;BME280;4062;49.844;8.120;2023-05-22T03:28:59;98935.69;;;15.62;59.11
8039;BME280;4062;49.844;8.120;2023-05-22T03:31:02;98937.41;;;15.63;59.11
8039;BME280;4062;49.844;8.120;2023-05-22T03:33:10;98935.69;;;15.62;59.06
8039;BME280;4062;49.844;8.120;2023-05-22T03:35:13;98933.00;;;15.62;59.14
8039;BME280;4062;49.844;8.120;2023-05-22T03:37:19;98936.53;;;15.63;59.09
8039;BME280;4062;49.844;8.120;2023-05-22T03:39:20;98942.72;;;15.63;59.13
8039;BME280;4062;49.844;8.120;2023-05-22T03:41:42;98936.53;;;15.63;59.08
8039;BME280;4062;49.844;8.120;2023-05-22T03:43:44;98941.84;;;15.63;59.12
8039;BME280;4062;49.844;8.120;2023-05-22T03:45:46;98938.25;;;15.64;59.05
8039;BME280;4062;49.844;8.120;2023-05-22T03:47:47;98935.59;;;15.64;59.09
8039;BME280;4062;49.844;8.120;2023-05-22T03:49:49;98938.25;;;15.64;59.16
8039;BME280;4062;49.844;8.120;2023-05-22T03:51:50;98935.59;;;15.64;59.13
8039;BME280;4062;49.844;8.120;2023-05-22T03:53:52;98936.53;;;15.63;59.07
8039;BME280;4062;49.844;8.120;2023-05-22T03:55:53;98935.69;;;15.62;59.03
8039;BME280;4062;49.844;8.120;2023-05-22T03:57:54;98936.53;;;15.63;59.14
8039;BME280;4062;49.844;8.120;2023-05-22T03:59:57;98933.84;;;15.63;58.99
8039;BME280;4062;49.844;8.120;2023-05-22T04:02:14;98939.19;;;15.63;59.01
8039;BME280;4062;49.844;8.120;2023-05-22T04:04:16;98934.75;;;15.63;59.12
8039;BME280;4062;49.844;8.120;2023-05-22T04:06:18;98933.84;;;15.63;59.14
8039;BME280;4062;49.844;8.120;2023-05-22T04:08:23;98932.91;;;15.64;59.18
8039;BME280;4062;49.844;8.120;2023-05-22T04:10:27;98940.06;;;15.63;59.07
8039;BME280;4062;49.844;8.120;2023-05-22T04:12:28;98943.56;;;15.64;59.00
8039;BME280;4062;49.844;8.120;2023-05-22T04:14:30;98943.56;;;15.64;59.12
8039;BME280;4062;49.844;8.120;2023-05-22T04:16:32;98937.41;;;15.63;59.00
8039;BME280;4062;49.844;8.120;2023-05-22T04:18:34;98950.72;;;15.63;59.14
8039;BME280;4062;49.844;8.120;2023-05-22T04:20:37;98948.06;;;15.63;58.99
8039;BME280;4062;49.844;8.120;2023-05-22T04:22:44;98954.22;;;15.64;59.28
8039;BME280;4062;49.844;8.120;2023-05-22T04:24:46;98953.38;;;15.63;59.19
8039;BME280;4062;49.844;8.120;2023-05-22T04:26:49;98949.84;;;15.63;59.00
8039;BME280;4062;49.844;8.120;2023-05-22T04:28:52;98959.56;;;15.64;59.11
8039;BME280;4062;49.844;8.120;2023-05-22T04:30:57;98952.50;;;15.63;59.14
8039;BME280;4062;49.844;8.120;2023-05-22T04:32:59;98955.16;;;15.63;59.17
8039;BME280;4062;49.844;8.120;2023-05-22T04:35:00;98956.88;;;15.64;59.01
8039;BME280;4062;49.844;8.120;2023-05-22T04:37:03;98966.69;;;15.63;59.11
8039;BME280;4062;49.844;8.120;2023-05-22T04:39:04;98959.56;;;15.64;59.07
8039;BME280;4062;49.844;8.120;2023-05-22T04:41:06;98966.69;;;15.63;59.03
8039;BME280;4062;49.844;8.120;2023-05-22T04:43:11;98962.22;;;15.64;59.13
8039;BME280;4062;49.844;8.120;2023-05-22T04:45:12;98964.88;;;15.64;59.02
8039;BME280;4062;49.844;8.120;2023-05-22T04:47:14;98967.53;;;15.64;59.00
8039;BME280;4062;49.844;8.120;2023-05-22T04:49:15;98969.34;;;15.63;59.01
8039;BME280;4062;49.844;8.120;2023-05-22T04:51:16;98977.34;;;15.63;59.09
8039;BME280;4062;49.844;8.120;2023-05-22T04:53:27;98971.06;;;15.64;59.07
8039;BME280;4062;49.844;8.120;2023-05-22T04:55:55;98974.69;;;15.63;59.11
8039;BME280;4062;49.844;8.120;2023-05-22T04:58:15;98975.53;;;15.64;59.01
8039;BME280;4062;49.844;8.120;2023-05-22T05:00:34;98970.19;;;15.64;58.92
8039;BME280;4062;49.844;8.120;2023-05-22T05:02:36;98971.06;;;15.64;58.93
8039;BME280;4062;49.844;8.120;2023-05-22T05:04:37;98969.34;;;15.63;59.15
8039;BME280;4062;49.844;8.120;2023-05-22T05:06:39;98975.53;;;15.64;59.05
8039;BME280;4062;49.844;8.120;2023-05-22T05:08:40;98976.38;;;15.64;59.11
8039;BME280;4062;49.844;8.120;2023-05-22T05:10:44;98980.84;;;15.64;58.85
8039;BME280;4062;49.844;8.120;2023-05-22T05:12:46;98981.69;;;15.64;59.02
8039;BME280;4062;49.844;8.120;2023-05-22T05:14:47;98981.69;;;15.64;59.08
8039;BME280;4062;49.844;8.120;2023-05-22T05:16:50;98978.19;;;15.64;58.95
8039;BME280;4062;49.844;8.120;2023-05-22T05:18:54;98975.53;;;15.64;59.01
8039;BME280;4062;49.844;8.120;2023-05-22T05:20:56;98976.38;;;15.64;58.98
8039;BME280;4062;49.844;8.120;2023-05-22T05:22:58;98963.06;;;15.64;59.12
8039;BME280;4062;49.844;8.120;2023-05-22T05:24:59;98971.06;;;15.64;58.95
8039;BME280;4062;49.844;8.120;2023-05-22T05:27:01;98969.28;;;15.65;59.07
8039;BME280;4062;49.844;8.120;2023-05-22T05:29:04;98971.06;;;15.64;59.13
8039;BME280;4062;49.844;8.120;2023-05-22T05:31:13;98966.59;;;15.65;59.13
8039;BME280;4062;49.844;8.120;2023-05-22T05:33:17;98971.06;;;15.64;59.00
8039;BME280;4062;49.844;8.120;2023-05-22T05:35:33;98979.03;;;15.64;59.04
8039;BME280;4062;49.844;8.120;2023-05-22T05:37:45;98971.94;;;15.65;59.07
8039;BME280;4062;49.844;8.120;2023-05-22T05:39:47;98979.03;;;15.64;59.02
8039;BME280;4062;49.844;8.120;2023-05-22T05:41:48;98985.25;;;15.65;59.14
8039;BME280;4062;49.844;8.120;2023-05-22T05:43:50;98986.09;;;15.66;59.18
8039;BME280;4062;49.844;8.120;2023-05-22T05:45:53;98983.44;;;15.66;59.01
8039;BME280;4062;49.844;8.120;2023-05-22T05:47:55;98978.09;;;15.66;59.01
8039;BME280;4062;49.844;8.120;2023-05-22T05:49:56;98985.25;;;15.65;59.17
8039;BME280;4062;49.844;8.120;2023-05-22T05:52:01;98991.41;;;15.66;59.12
8039;BME280;4062;49.844;8.120;2023-05-22T05:54:03;98986.09;;;15.66;58.99
8039;BME280;4062;49.844;8.120;2023-05-22T05:56:05;98986.09;;;15.66;59.07
8039;BME280;4062;49.844;8.120;2023-05-22T05:58:07;98988.75;;;15.66;59.12
8039;BME280;4062;49.844;8.120;2023-05-22T06:00:19;98992.28;;;15.66;59.03
8039;BME280;4062;49.844;8.120;2023-05-22T06:02:24;98987.81;;;15.67;59.10
8039;BME280;4062;49.844;8.120;2023-05-22T06:04:31;98986.09;;;15.66;59.00
8039;BME280;4062;49.844;8.120;2023-05-22T06:06:32;98985.25;;;15.65;59.11
8039;BME280;4062;49.844;8.120;2023-05-22T06:08:49;98991.41;;;15.66;58.98
8039;BME280;4062;49.844;8.120;2023-05-22T06:10:50;98993.16;;;15.67;59.10
8039;BME280;4062;49.844;8.120;2023-05-22T06:13:12;98989.63;;;15.66;59.01
8039;BME280;4062;49.844;8.120;2023-05-22T06:15:14;98994.03;;;15.67;59.11
8039;BME280;4062;49.844;8.120;2023-05-22T06:17:16;98992.28;;;15.66;58.98
8039;BME280;4062;49.844;8.120;2023-05-22T06:19:18;98994.88;;;15.68;59.04
8039;BME280;4062;49.844;8.120;2023-05-22T06:21:20;98999.34;;;15.67;59.12
8039;BME280;4062;49.844;8.120;2023-05-22T06:23:22;99002.00;;;15.67;58.92
8039;BME280;4062;49.844;8.120;2023-05-22T06:25:23;98998.47;;;15.67;59.07
8039;BME280;4062;49.844;8.120;2023-05-22T06:27:26;99002.00;;;15.67;58.98
8039;BME280;4062;49.844;8.120;2023-05-22T06:29:29;98992.22;;;15.68;59.09
8039;BME280;4062;49.844;8.120;2023-05-22T06:31:31;98998.41;;;15.68;59.06
8039;BME280;4062;49.844;8.120;2023-05-22T06:33:36;99003.75;;;15.68;59.05
8039;BME280;4062;49.844;8.120;2023-05-22T06:35:37;99003.75;;;15.68;59.17
8039;BME280;4062;49.844;8.120;2023-05-22T06:37:40;99007.25;;;15.69;58.98
8039;BME280;4062;49.844;8.120;2023-05-22T06:39:43;99006.31;;;15.70;58.88
8039;BME280;4062;49.844;8.120;2023-05-22T06:41:56;99008.97;;;15.70;58.98
8039;BME280;4062;49.844;8.120;2023-05-22T06:43:57;99003.66;;;15.70;58.84
8039;BME280;4062;49.844;8.120;2023-05-22T06:46:03;99000.06;;;15.71;58.96
8039;BME280;4062;49.844;8.120;2023-05-22T06:48:14;99006.22;;;15.71;58.91
8039;BME280;4062;49.844;8.120;2023-05-22T06:50:32;99006.22;;;15.71;59.09
8039;BME280;4062;49.844;8.120;2023-05-22T06:52:33;99011.50;;;15.73;58.93
8039;BME280;4062;49.844;8.120;2023-05-22T06:54:36;99007.00;;;15.73;59.05
8039;BME280;4062;49.844;8.120;2023-05-22T06:56:38;99007.81;;;15.75;58.87
8039;BME280;4062;49.844;8.120;2023-05-22T06:58:48;99012.25;;;15.75;58.86
8039;BME280;4062;49.844;8.120;2023-05-22T07:00:50;99014.91;;;15.75;58.84
8039;BME280;4062;49.844;8.120;2023-05-22T07:02:57;99012.25;;;15.75;58.81
8039;BME280;4062;49.844;8.120;2023-05-22T07:05:04;99009.59;;;15.75;58.83
8039;BME280;4062;49.844;8.120;2023-05-22T07:07:12;99015.69;;;15.77;58.91
8039;BME280;4062;49.844;8.120;2023-05-22T07:09:14;99013.03;;;15.77;58.86
8039;BME280;4062;49.844;8.120;2023-05-22T07:11:16;99009.44;;;15.78;58.78
8039;BME280;4062;49.844;8.120;2023-05-22T07:13:17;99011.25;;;15.77;58.78
8039;BME280;4062;49.844;8.120;2023-05-22T07:15:19;99014.75;;;15.78;58.79
8039;BME280;4062;49.844;8.120;2023-05-22T07:17:25;99017.44;;;15.78;58.89
8039;BME280;4062;49.844;8.120;2023-05-22T07:19:27;99019.16;;;15.79;58.87
8039;BME280;4062;49.844;8.120;2023-05-22T07:21:36;99014.75;;;15.78;58.97
8039;BME280;4062;49.844;8.120;2023-05-22T07:23:38;99020.94;;;15.78;58.76
8039;BME280;4062;49.844;8.120;2023-05-22T07:25:41;99011.16;;;15.79;58.87
8039;BME280;4062;49.844;8.120;2023-05-22T07:27:42;99019.16;;;15.79;58.74
8039;BME280;4062;49.844;8.120;2023-05-22T07:29:44;99025.34;;;15.79;58.69
8039;BME280;4062;49.844;8.120;2023-05-22T07:31:45;99016.50;;;15.79;58.76
8039;BME280;4062;49.844;8.120;2023-05-22T07:33:47;99019.16;;;15.79;58.77
8039;BME280;4062;49.844;8.120;2023-05-22T07:35:50;99010.28;;;15.78;58.84
8039;BME280;4062;49.844;8.120;2023-05-22T07:37:52;99015.63;;;15.78;58.87
8039;BME280;4062;49.844;8.120;2023-05-22T07:39:53;99008.50;;;15.79;58.85
8039;BME280;4062;49.844;8.120;2023-05-22T07:41:54;99015.63;;;15.78;58.78
8039;BME280;4062;49.844;8.120;2023-05-22T07:43:56;99016.50;;;15.79;58.85
8039;BME280;4062;49.844;8.120;2023-05-22T07:46:02;99010.22;;;15.80;58.93
8039;BME280;4062;49.844;8.120;2023-05-22T07:48:11;99005.75;;;15.81;58.92
8039;BME280;4062;49.844;8.120;2023-05-22T07:50:13;99010.13;;;15.82;58.79
8039;BME280;4062;49.844;8.120;2023-05-22T07:52:17;99011.94;;;15.81;58.67
8039;BME280;4062;49.844;8.120;2023-05-22T07:54:19;99013.69;;;15.82;58.63
8039;BME280;4062;49.844;8.120;2023-05-22T07:56:24;99011.00;;;15.82;58.93
8039;BME280;4062;49.844;8.120;2023-05-22T07:58:28;99013.69;;;15.82;58.75
8039;BME280;4062;49.844;8.120;2023-05-22T08:00:29;99008.34;;;15.82;58.88
8039;BME280;4062;49.844;8.120;2023-05-22T08:02:31;99012.81;;;15.82;58.80
8039;BME280;4062;49.844;8.120;2023-05-22T08:04:33;99019.84;;;15.83;58.75
8039;BME280;4062;49.844;8.120;2023-05-22T08:06:35;99018.03;;;15.83;58.81
8039;BME280;4062;49.844;8.120;2023-05-22T08:08:36;99011.88;;;15.83;58.81
8039;BME280;4062;49.844;8.120;2023-05-22T08:10:38;99018.13;;;15.82;58.82
8039;BME280;4062;49.844;8.120;2023-05-22T08:12:39;99019.00;;;15.82;58.92
8039;BME280;4062;49.844;8.120;2023-05-22T08:14:40;99014.63;;;15.81;58.89
8039;BME280;4062;49.844;8.120;2023-05-22T08:16:42;99021.66;;;15.82;58.73
8039;BME280;4062;49.844;8.120;2023-05-22T08:18:43;99023.47;;;15.82;58.67
8039;BME280;4062;49.844;8.120;2023-05-22T08:20:44;99028.78;;;15.82;58.81
8039;BME280;4062;49.844;8.120;2023-05-22T08:22:47;99022.59;;;15.81;58.93
8039;BME280;4062;49.844;8.120;2023-05-22T08:24:48;99030.59;;;15.81;58.94
8039;BME280;4062;49.844;8.120;2023-05-22T08:26:49;99019.94;;;15.81;58.72
8039;BME280;4062;49.844;8.120;2023-05-22T08:28:51;99024.38;;;15.81;58.79
8039;BME280;4062;49.844;8.120;2023-05-22T08:30:52;99030.59;;;15.81;58.72
8039;BME280;4062;49.844;8.120;2023-05-22T08:32:54;99022.59;;;15.81;58.86
8039;BME280;4062;49.844;8.120;2023-05-22T08:34:56;99024.38;;;15.81;58.90
8039;BME280;4062;49.844;8.120;2023-05-22T08:36:57;99022.59;;;15.81;58.74
8039;BME280;4062;49.844;8.120;2023-05-22T08:38:59;99019.06;;;15.81;58.93
8039;BME280;4062;49.844;8.120;2023-05-22T08:41:01;99025.28;;;15.81;58.81
8039;BME280;4062;49.844;8.120;2023-05-22T08:43:03;99018.22;;;15.80;58.81
8039;BME280;4062;49.844;8.120;2023-05-22T08:45:08;99029.72;;;15.81;58.94
8039;BME280;4062;49.844;8.120;2023-05-22T08:47:10;99017.34;;;15.79;58.76
8039;BME280;4062;49.844;8.120;2023-05-22T08:49:14;99029.72;;;15.81;58.94
8039;BME280;4062;49.844;8.120;2023-05-22T08:51:18;99020.88;;;15.80;58.97
8039;BME280;4062;49.844;8.120;2023-05-22T08:53:21;99022.59;;;15.81;58.79
8039;BME280;4062;49.844;8.120;2023-05-22T08:55:24;99017.28;;;15.81;58.89
8039;BME280;4062;49.844;8.120;2023-05-22T08:57:26;99013.75;;;15.81;58.88
8039;BME280;4062;49.844;8.120;2023-05-22T08:59:28;99014.69;;;15.79;58.90
8039;BME280;4062;49.844;8.120;2023-05-22T09:01:30;99025.34;;;15.79;58.77
8039;BME280;4062;49.844;8.120;2023-05-22T09:03:32;99019.06;;;15.81;58.83
8039;BME280;4062;49.844;8.120;2023-05-22T09:05:35;99028.88;;;15.80;59.01
8039;BME280;4062;49.844;8.120;2023-05-22T09:07:36;99025.34;;;15.79;58.86
8039;BME280;4062;49.844;8.120;2023-05-22T09:09:40;99028.88;;;15.80;58.97
8039;BME280;4062;49.844;8.120;2023-05-22T09:11:42;99033.31;;;15.79;58.84
8039;BME280;4062;49.844;8.120;2023-05-22T09:13:43;99028.88;;;15.80;58.86
8039;BME280;4062;49.844;8.120;2023-05-22T09:15:44;99027.06;;;15.81;58.95
8039;BME280;4062;49.844;8.120;2023-05-22T09:17:46;99031.53;;;15.80;58.84
8039;BME280;4062;49.844;8.120;2023-05-22T09:19:47;99031.53;;;15.80;58.82
8039;BME280;4062;49.844;8.120;2023-05-22T09:21:48;99030.66;;;15.79;58.96
8039;BME280;4062;49.844;8.120;2023-05-22T09:23:50;99033.31;;;15.79;58.84
8039;BME280;4062;49.844;8.120;2023-05-22T09:25:57;99036.00;;;15.79;58.83
8039;BME280;4062;49.844;8.120;2023-05-22T09:27:58;99031.59;;;15.78;58.79
8039;BME280;4062;49.844;8.120;2023-05-22T09:29:59;99028.94;;;15.78;59.02
8039;BME280;4062;49.844;8.120;2023-05-22T09:32:01;99030.75;;;15.78;58.94
8039;BME280;4062;49.844;8.120;2023-05-22T09:34:04;99032.47;;;15.79;59.02
8039;BME280;4062;49.844;8.120;2023-05-22T09:36:08;99031.59;;;15.78;59.05
8039;BME280;4062;49.844;8.120;2023-05-22T09:38:10;99030.75;;;15.78;58.97
8039;BME280;4062;49.844;8.120;2023-05-22T09:40:12;99030.75;;;15.78;58.89
8039;BME280;4062;49.844;8.120;2023-05-22T09:42:15;99036.06;;;15.78;58.98
8039;BME280;4062;49.844;8.120;2023-05-22T09:44:17;99031.59;;;15.78;58.96
8039;BME280;4062;49.844;8.120;2023-05-22T09:46:18;99032.47;;;15.79;59.03
8039;BME280;4062;49.844;8.120;2023-05-22T09:48:19;99031.59;;;15.78;58.89
8039;BME280;4062;49.844;8.120;2023-05-22T09:50:21;99034.25;;;15.78;58.97
8039;BME280;4062;49.844;8.120;2023-05-22T09:52:23;99028.94;;;15.78;58.92
8039;BME280;4062;49.844;8.120;2023-05-22T09:54:26;99037.81;;;15.79;58.81
8039;BME280;4062;49.844;8.120;2023-05-22T09:56:31;99033.41;;;15.78;58.88
8039;BME280;4062;49.844;8.120;2023-05-22T09:58:38;99032.47;;;15.79;58.90
8039;BME280;4062;49.844;8.120;2023-05-22T10:00:42;99027.16;;;15.79;59.07
8039;BME280;4062;49.844;8.120;2023-05-22T10:02:45;99033.41;;;15.78;58.98
8039;BME280;4062;49.844;8.120;2023-05-22T10:04:48;99027.16;;;15.79;59.01
8039;BME280;4062;49.844;8.120;2023-05-22T10:06:53;99028.09;;;15.78;58.84
8039;BME280;4062;49.844;8.120;2023-05-22T10:09:02;99024.47;;;15.79;58.94
8039;BME280;4062;49.844;8.120;2023-05-22T10:11:05;99020.88;;;15.80;58.96
8039;BME280;4062;49.844;8.120;2023-05-22T10:13:06;99023.53;;;15.80;58.88
8039;BME280;4062;49.844;8.120;2023-05-22T10:15:09;99018.22;;;15.80;58.80
8039;BME280;4062;49.844;8.120;2023-05-22T10:17:11;99015.47;;;15.82;58.92
8039;BME280;4062;49.844;8.120;2023-05-22T10:19:13;99014.63;;;15.81;58.85
8039;BME280;4062;49.844;8.120;2023-05-22T10:21:16;99015.47;;;15.82;58.78
8039;BME280;4062;49.844;8.120;2023-05-22T10:23:18;99010.13;;;15.82;58.78
8039;BME280;4062;49.844;8.120;2023-05-22T10:25:19;99011.06;;;15.81;58.81
8039;BME280;4062;49.844;8.120;2023-05-22T10:27:24;99011.06;;;15.81;58.89
8039;BME280;4062;49.844;8.120;2023-05-22T10:29:37;99005.75;;;15.81;58.76
8039;BME280;4062;49.844;8.120;2023-05-22T10:32:06;99002.16;;;15.82;58.81
8039;BME280;4062;49.844;8.120;2023-05-22T10:34:39;99000.38;;;15.82;58.81
8039;BME280;4062;49.844;8.120;2023-05-22T10:37:20;98995.03;;;15.82;58.76
8039;BME280;4062;49.844;8.120;2023-05-22T10:41:59;98988.75;;;15.83;58.77
8039;BME280;4062;49.844;8.120;2023-05-22T10:44:02;98994.06;;;15.83;58.77
8039;BME280;4062;49.844;8.120;2023-05-22T10:46:05;98994.06;;;15.83;58.97
8039;BME280;4062;49.844;8.120;2023-05-22T10:48:10;98985.22;;;15.83;58.98
8039;BME280;4062;49.844;8.120;2023-05-22T10:50:12;98986.06;;;15.83;58.73
8039;BME280;4062;49.844;8.120;2023-05-22T10:52:14;98980.75;;;15.83;58.84
8039;BME280;4062;49.844;8.120;2023-05-22T10:54:15;98983.41;;;15.83;58.93
8039;BME280;4062;49.844;8.120;2023-05-22T10:56:17;98983.41;;;15.83;58.74
8039;BME280;4062;49.844;8.120;2023-05-22T10:58:54;98977.22;;;15.83;58.80
8039;BME280;4062;49.844;8.120;2023-05-22T11:01:12;98978.09;;;15.83;58.94
8039;BME280;4062;49.844;8.120;2023-05-22T11:03:14;98975.41;;;15.83;58.92
8039;BME280;4062;49.844;8.120;2023-05-22T11:07:22;98970.09;;;15.83;58.88
8039;BME280;4062;49.844;8.120;2023-05-22T11:11:43;98967.44;;;15.83;58.88
8039;BME280;4062;49.844;8.120;2023-05-22T11:13:51;98977.19;;;15.84;58.85
8039;BME280;4062;49.844;8.120;2023-05-22T11:15:54;98963.91;;;15.83;58.85
8039;BME280;4062;49.844;8.120;2023-05-22T11:18:01;98966.53;;;15.84;58.87
8039;BME280;4062;49.844;8.120;2023-05-22T11:22:13;98968.34;;;15.84;58.80
8039;BME280;4062;49.844;8.120;2023-05-22T11:24:15;98964.75;;;15.83;58.82
8039;BME280;4062;49.844;8.120;2023-05-22T11:26:19;98970.09;;;15.83;58.94
8039;BME280;4062;49.844;8.120;2023-05-22T11:28:22;98959.44;;;15.83;58.73
8039;BME280;4062;49.844;8.120;2023-05-22T11:30:27;98958.53;;;15.84;58.71
8039;BME280;4062;49.844;8.120;2023-05-22T11:32:30;98959.44;;;15.83;58.88
8039;BME280;4062;49.844;8.120;2023-05-22T11:34:31;98951.44;;;15.83;58.87
8039;BME280;4062;49.844;8.120;2023-05-22T11:36:33;98952.41;;;15.82;58.92
8039;BME280;4062;49.844;8.120;2023-05-22T11:38:35;98953.25;;;15.83;58.91